sensor_id;sensor_type;location;lat;lon;timestamp;P1;durP1;ratioP1;P2;durP2;ratioP2
68214;SDS011;55036;52.138;5.236;2023-04-01T00:01:03;29.48;;;10.07;;
68214;SDS011;55036;52.138;5.236;2023-04-01T00:03:31;24.63;;;9.43;;
68214;SDS011;55036;52.138;5.236;2023-04-01T00:05:59;27.42;;;9.40;;
68214;SDS011;55036;52.138;5.236;2023-04-01T00:08:27;22.83;;;9.43;;
68214;SDS011;55036;52.138;5.236;2023-04-01T00:10:54;24.02;;;9.77;;
68214;SDS011;55036;52.138;5.236;2023-04-01T00:13:21;21.23;;;9.23;;
68214;SDS011;55036;52.138;5.236;2023-04-01T00:15:48;24.27;;;8.38;;
68214;SDS011;55036;52.138;5.236;2023-04-01T00:18:15;26.60;;;9.25;;
68214;SDS011;55036;52.138;5.236;2023-04-01T00:20:45;25.50;;;8.60;;
68214;SDS011;55036;52.138;5.236;2023-04-01T00:23:14;26.98;;;9.23;;
68214;SDS011;55036;52.138;5.236;2023-04-01T00:25:41;23.27;;;8.45;;
68214;SDS011;55036;52.138;5.236;2023-04-01T00:28:09;25.05;;;9.07;;
68214;SDS011;55036;52.138;5.236;2023-04-01T00:30:36;35.88;;;10.32;;
68214;SDS011;55036;52.138;5.236;2023-04-01T00:33:03;26.58;;;9.95;;
68214;SDS011;55036;52.138;5.236;2023-04-01T00:35:31;24.85;;;10.13;;
68214;SDS011;55036;52.138;5.236;2023-04-01T00:37:59;28.05;;;11.00;;
68214;SDS011;55036;52.138;5.236;2023-04-01T00:40:27;26.60;;;9.95;;
68214;SDS011;55036;52.138;5.236;2023-04-01T00:43:03;28.65;;;11.80;;
68214;SDS011;55036;52.138;5.236;2023-04-01T00:45:37;27.33;;;10.88;;
68214;SDS011;55036;52.138;5.236;2023-04-01T00:48:07;33.88;;;10.75;;
68214;SDS011;55036;52.138;5.236;2023-04-01T00:50:37;24.33;;;10.80;;
68214;SDS011;55036;52.138;5.236;2023-04-01T00:53:06;27.50;;;10.93;;
68214;SDS011;55036;52.138;5.236;2023-04-01T00:55:35;29.35;;;10.80;;
68214;SDS011;55036;52.138;5.236;2023-04-01T00:58:08;22.85;;;10.65;;
68214;SDS011;55036;52.138;5.236;2023-04-01T01:00:40;21.50;;;11.27;;
68214;SDS011;55036;52.138;5.236;2023-04-01T01:03:08;22.35;;;10.88;;
68214;SDS011;55036;52.138;5.236;2023-04-01T01:05:38;29.85;;;10.88;;
68214;SDS011;55036;52.138;5.236;2023-04-01T01:11:07;24.27;;;10.82;;
68214;SDS011;55036;52.138;5.236;2023-04-01T01:13:46;20.65;;;9.50;;
68214;SDS011;55036;52.138;5.236;2023-04-01T01:16:29;17.75;;;9.80;;
68214;SDS011;55036;52.138;5.236;2023-04-01T01:19:06;16.52;;;8.77;;
68214;SDS011;55036;52.138;5.236;2023-04-01T01:22:12;16.70;;;7.32;;
68214;SDS011;55036;52.138;5.236;2023-04-01T01:27:27;16.65;;;7.55;;
68214;SDS011;55036;52.138;5.236;2023-04-01T01:32:44;14.35;;;7.10;;
68214;SDS011;55036;52.138;5.236;2023-04-01T01:35:22;14.60;;;7.18;;
68214;SDS011;55036;52.138;5.236;2023-04-01T01:37:58;12.65;;;6.00;;
68214;SDS011;55036;52.138;5.236;2023-04-01T01:40:28;19.30;;;6.40;;
68214;SDS011;55036;52.138;5.236;2023-04-01T01:42:59;14.18;;;6.15;;
68214;SDS011;55036;52.138;5.236;2023-04-01T01:45:30;7.35;;;4.65;;
68214;SDS011;55036;52.138;5.236;2023-04-01T01:48:02;13.27;;;5.50;;
68214;SDS011;55036;52.138;5.236;2023-04-01T01:50:31;11.07;;;5.13;;
68214;SDS011;55036;52.138;5.236;2023-04-01T01:53:03;13.88;;;5.50;;
68214;SDS011;55036;52.138;5.236;2023-04-01T01:55:39;12.73;;;4.40;;
68214;SDS011;55036;52.138;5.236;2023-04-01T01:58:12;10.32;;;4.93;;
68214;SDS011;55036;52.138;5.236;2023-04-01T02:00:45;10.98;;;4.75;;
68214;SDS011;55036;52.138;5.236;2023-04-01T02:03:16;13.52;;;5.43;;
68214;SDS011;55036;52.138;5.236;2023-04-01T02:05:45;8.85;;;4.82;;
68214;SDS011;55036;52.138;5.236;2023-04-01T02:08:14;10.40;;;4.10;;
68214;SDS011;55036;52.138;5.236;2023-04-01T02:10:49;13.77;;;4.70;;
68214;SDS011;55036;52.138;5.236;2023-04-01T02:13:39;11.90;;;4.25;;
68214;SDS011;55036;52.138;5.236;2023-04-01T02:16:14;7.60;;;4.18;;
68214;SDS011;55036;52.138;5.236;2023-04-01T02:18:55;12.18;;;4.40;;
68214;SDS011;55036;52.138;5.236;2023-04-01T02:21:24;12.45;;;5.13;;
68214;SDS011;55036;52.138;5.236;2023-04-01T02:23:55;10.98;;;5.05;;
68214;SDS011;55036;52.138;5.236;2023-04-01T02:26:24;11.18;;;5.03;;
68214;SDS011;55036;52.138;5.236;2023-04-01T02:28:52;10.35;;;4.85;;
68214;SDS011;55036;52.138;5.236;2023-04-01T02:31:21;14.77;;;5.63;;
68214;SDS011;55036;52.138;5.236;2023-04-01T02:33:48;8.63;;;5.40;;
68214;SDS011;55036;52.138;5.236;2023-04-01T02:36:15;10.68;;;4.75;;
68214;SDS011;55036;52.138;5.236;2023-04-01T02:38:44;12.45;;;6.20;;
68214;SDS011;55036;52.138;5.236;2023-04-01T02:41:11;9.20;;;5.20;;
68214;SDS011;55036;52.138;5.236;2023-04-01T02:43:38;9.80;;;4.93;;
68214;SDS011;55036;52.138;5.236;2023-04-01T02:46:05;8.93;;;3.97;;
68214;SDS011;55036;52.138;5.236;2023-04-01T02:48:31;10.38;;;4.20;;
68214;SDS011;55036;52.138;5.236;2023-04-01T02:50:58;11.88;;;4.78;;
68214;SDS011;55036;52.138;5.236;2023-04-01T02:53:25;8.57;;;3.97;;
68214;SDS011;55036;52.138;5.236;2023-04-01T02:55:51;8.85;;;3.97;;
68214;SDS011;55036;52.138;5.236;2023-04-01T02:58:18;10.77;;;4.90;;
68214;SDS011;55036;52.138;5.236;2023-04-01T03:00:45;10.55;;;4.38;;
68214;SDS011;55036;52.138;5.236;2023-04-01T03:03:12;7.55;;;4.53;;
68214;SDS011;55036;52.138;5.236;2023-04-01T03:05:39;10.10;;;4.63;;
68214;SDS011;55036;52.138;5.236;2023-04-01T03:08:06;12.57;;;6.28;;
68214;SDS011;55036;52.138;5.236;2023-04-01T03:10:33;11.95;;;6.03;;
68214;SDS011;55036;52.138;5.236;2023-04-01T03:13:00;13.85;;;6.20;;
68214;SDS011;55036;52.138;5.236;2023-04-01T03:15:27;14.35;;;7.13;;
68214;SDS011;55036;52.138;5.236;2023-04-01T03:17:53;13.13;;;7.00;;
68214;SDS011;55036;52.138;5.236;2023-04-01T03:20:20;17.63;;;7.65;;
68214;SDS011;55036;52.138;5.236;2023-04-01T03:22:47;14.13;;;7.18;;
68214;SDS011;55036;52.138;5.236;2023-04-01T03:25:13;13.13;;;7.82;;
68214;SDS011;55036;52.138;5.236;2023-04-01T03:27:40;15.75;;;8.38;;
68214;SDS011;55036;52.138;5.236;2023-04-01T03:30:07;14.40;;;8.65;;
68214;SDS011;55036;52.138;5.236;2023-04-01T03:32:35;16.05;;;8.88;;
68214;SDS011;55036;52.138;5.236;2023-04-01T03:35:02;17.80;;;8.65;;
68214;SDS011;55036;52.138;5.236;2023-04-01T03:37:29;17.25;;;9.25;;
68214;SDS011;55036;52.138;5.236;2023-04-01T03:39:56;14.85;;;8.95;;
68214;SDS011;55036;52.138;5.236;2023-04-01T03:42:22;13.98;;;8.57;;
68214;SDS011;55036;52.138;5.236;2023-04-01T03:44:49;15.10;;;8.50;;
68214;SDS011;55036;52.138;5.236;2023-04-01T03:47:16;12.95;;;8.18;;
68214;SDS011;55036;52.138;5.236;2023-04-01T03:49:42;13.98;;;7.78;;
68214;SDS011;55036;52.138;5.236;2023-04-01T03:52:10;14.82;;;7.97;;
68214;SDS011;55036;52.138;5.236;2023-04-01T03:54:37;12.15;;;6.90;;
68214;SDS011;55036;52.138;5.236;2023-04-01T03:57:04;14.52;;;7.35;;
68214;SDS011;55036;52.138;5.236;2023-04-01T03:59:31;15.93;;;7.85;;
68214;SDS011;55036;52.138;5.236;2023-04-01T04:01:58;14.82;;;7.30;;
68214;SDS011;55036;52.138;5.236;2023-04-01T04:04:25;13.93;;;7.75;;
68214;SDS011;55036;52.138;5.236;2023-04-01T04:06:53;14.45;;;7.90;;
68214;SDS011;55036;52.138;5.236;2023-04-01T04:09:20;16.50;;;8.73;;
68214;SDS011;55036;52.138;5.236;2023-04-01T04:11:47;17.60;;;8.48;;
68214;SDS011;55036;52.138;5.236;2023-04-01T04:14:14;12.45;;;6.88;;
68214;SDS011;55036;52.138;5.236;2023-04-01T04:16:41;11.52;;;6.18;;
68214;SDS011;55036;52.138;5.236;2023-04-01T04:19:07;12.77;;;5.82;;
68214;SDS011;55036;52.138;5.236;2023-04-01T04:21:34;15.55;;;7.20;;
68214;SDS011;55036;52.138;5.236;2023-04-01T04:24:01;12.95;;;6.55;;
68214;SDS011;55036;52.138;5.236;2023-04-01T04:26:28;11.95;;;6.28;;
68214;SDS011;55036;52.138;5.236;2023-04-01T04:28:55;11.73;;;5.60;;
68214;SDS011;55036;52.138;5.236;2023-04-01T04:31:22;11.68;;;6.07;;
68214;SDS011;55036;52.138;5.236;2023-04-01T04:33:50;8.50;;;4.88;;
68214;SDS011;55036;52.138;5.236;2023-04-01T04:36:18;7.90;;;4.47;;
68214;SDS011;55036;52.138;5.236;2023-04-01T04:38:45;7.97;;;4.63;;
68214;SDS011;55036;52.138;5.236;2023-04-01T04:41:13;8.65;;;4.10;;
68214;SDS011;55036;52.138;5.236;2023-04-01T04:43:41;8.23;;;3.75;;
68214;SDS011;55036;52.138;5.236;2023-04-01T04:46:08;9.23;;;4.22;;
68214;SDS011;55036;52.138;5.236;2023-04-01T04:48:36;8.68;;;4.38;;
68214;SDS011;55036;52.138;5.236;2023-04-01T04:51:03;9.07;;;4.63;;
68214;SDS011;55036;52.138;5.236;2023-04-01T04:53:29;10.50;;;5.15;;
68214;SDS011;55036;52.138;5.236;2023-04-01T04:55:56;9.52;;;5.20;;
68214;SDS011;55036;52.138;5.236;2023-04-01T04:58:23;11.65;;;5.18;;
68214;SDS011;55036;52.138;5.236;2023-04-01T05:00:49;9.43;;;5.00;;
68214;SDS011;55036;52.138;5.236;2023-04-01T05:03:16;8.27;;;4.97;;
68214;SDS011;55036;52.138;5.236;2023-04-01T05:05:50;10.40;;;5.32;;
68214;SDS011;55036;52.138;5.236;2023-04-01T05:08:19;12.07;;;5.60;;
68214;SDS011;55036;52.138;5.236;2023-04-01T05:10:46;9.38;;;5.60;;
68214;SDS011;55036;52.138;5.236;2023-04-01T05:13:13;10.45;;;5.72;;
68214;SDS011;55036;52.138;5.236;2023-04-01T05:15:39;9.77;;;6.18;;
68214;SDS011;55036;52.138;5.236;2023-04-01T05:18:06;9.50;;;5.75;;
68214;SDS011;55036;52.138;5.236;2023-04-01T05:20:33;14.95;;;5.85;;
68214;SDS011;55036;52.138;5.236;2023-04-01T05:23:00;10.68;;;6.40;;
68214;SDS011;55036;52.138;5.236;2023-04-01T05:25:26;13.00;;;6.82;;
68214;SDS011;55036;52.138;5.236;2023-04-01T05:27:53;13.88;;;6.22;;
68214;SDS011;55036;52.138;5.236;2023-04-01T05:30:20;13.07;;;6.63;;
68214;SDS011;55036;52.138;5.236;2023-04-01T05:32:47;10.80;;;6.18;;
68214;SDS011;55036;52.138;5.236;2023-04-01T05:35:14;12.60;;;6.63;;
68214;SDS011;55036;52.138;5.236;2023-04-01T05:37:41;12.75;;;6.47;;
68214;SDS011;55036;52.138;5.236;2023-04-01T05:40:08;14.15;;;6.70;;
68214;SDS011;55036;52.138;5.236;2023-04-01T05:42:35;10.93;;;6.15;;
68214;SDS011;55036;52.138;5.236;2023-04-01T05:45:03;10.90;;;6.28;;
68214;SDS011;55036;52.138;5.236;2023-04-01T05:47:31;10.90;;;6.88;;
68214;SDS011;55036;52.138;5.236;2023-04-01T05:49:57;11.18;;;6.38;;
68214;SDS011;55036;52.138;5.236;2023-04-01T05:52:24;11.80;;;7.15;;
68214;SDS011;55036;52.138;5.236;2023-04-01T05:54:51;11.98;;;6.53;;
68214;SDS011;55036;52.138;5.236;2023-04-01T05:57:18;12.93;;;7.18;;
68214;SDS011;55036;52.138;5.236;2023-04-01T05:59:44;13.18;;;7.07;;
68214;SDS011;55036;52.138;5.236;2023-04-01T06:02:11;13.32;;;6.68;;
68214;SDS011;55036;52.138;5.236;2023-04-01T06:04:39;12.73;;;6.55;;
68214;SDS011;55036;52.138;5.236;2023-04-01T06:07:16;12.65;;;7.38;;
68214;SDS011;55036;52.138;5.236;2023-04-01T06:09:44;10.52;;;6.25;;
68214;SDS011;55036;52.138;5.236;2023-04-01T06:17:58;16.15;;;7.30;;
68214;SDS011;55036;52.138;5.236;2023-04-01T06:31:35;11.40;;;6.47;;
68214;SDS011;55036;52.138;5.236;2023-04-01T06:55:45;5.28;;;3.50;;
68214;SDS011;55036;52.138;5.236;2023-04-01T06:58:33;6.80;;;3.97;;
68214;SDS011;55036;52.138;5.236;2023-04-01T07:01:08;7.30;;;4.57;;
68214;SDS011;55036;52.138;5.236;2023-04-01T07:03:40;5.85;;;3.83;;
68214;SDS011;55036;52.138;5.236;2023-04-01T07:06:25;6.68;;;3.85;;
68214;SDS011;55036;52.138;5.236;2023-04-01T07:08:59;6.43;;;3.40;;
68214;SDS011;55036;52.138;5.236;2023-04-01T07:11:31;6.50;;;3.17;;
68214;SDS011;55036;52.138;5.236;2023-04-01T07:19:37;6.85;;;4.10;;
68214;SDS011;55036;52.138;5.236;2023-04-01T07:22:21;7.85;;;4.57;;
68214;SDS011;55036;52.138;5.236;2023-04-01T07:25:02;8.25;;;5.15;;
68214;SDS011;55036;52.138;5.236;2023-04-01T07:27:37;9.80;;;5.47;;
68214;SDS011;55036;52.138;5.236;2023-04-01T07:30:06;10.57;;;5.57;;
68214;SDS011;55036;52.138;5.236;2023-04-01T07:32:44;8.45;;;5.65;;
68214;SDS011;55036;52.138;5.236;2023-04-01T07:38:48;10.68;;;6.63;;
68214;SDS011;55036;52.138;5.236;2023-04-01T07:43:54;13.35;;;6.50;;
68214;SDS011;55036;52.138;5.236;2023-04-01T07:49:15;13.38;;;6.60;;
68214;SDS011;55036;52.138;5.236;2023-04-01T08:00:08;9.27;;;5.35;;
68214;SDS011;55036;52.138;5.236;2023-04-01T08:03:40;14.55;;;6.55;;
68214;SDS011;55036;52.138;5.236;2023-04-01T08:05:40;12.50;;;6.80;;
68214;SDS011;55036;52.138;5.236;2023-04-01T08:11:03;14.52;;;7.70;;
68214;SDS011;55036;52.138;5.236;2023-04-01T08:16:46;15.43;;;7.43;;
68214;SDS011;55036;52.138;5.236;2023-04-01T08:19:45;12.10;;;7.10;;
68214;SDS011;55036;52.138;5.236;2023-04-01T08:22:29;14.48;;;7.75;;
68214;SDS011;55036;52.138;5.236;2023-04-01T08:25:04;14.15;;;7.88;;
68214;SDS011;55036;52.138;5.236;2023-04-01T08:33:00;14.52;;;8.20;;
68214;SDS011;55036;52.138;5.236;2023-04-01T08:35:37;16.83;;;7.47;;
68214;SDS011;55036;52.138;5.236;2023-04-01T08:41:44;16.75;;;8.80;;
68214;SDS011;55036;52.138;5.236;2023-04-01T08:52:27;16.88;;;8.40;;
68214;SDS011;55036;52.138;5.236;2023-04-01T08:55:21;19.67;;;9.15;;
68214;SDS011;55036;52.138;5.236;2023-04-01T08:57:53;18.42;;;9.18;;
68214;SDS011;55036;52.138;5.236;2023-04-01T09:00:38;20.35;;;9.55;;
68214;SDS011;55036;52.138;5.236;2023-04-01T09:06:38;21.00;;;9.20;;
68214;SDS011;55036;52.138;5.236;2023-04-01T09:40:31;13.05;;;6.07;;
68214;SDS011;55036;52.138;5.236;2023-04-01T09:45:57;11.73;;;5.55;;
68214;SDS011;55036;52.138;5.236;2023-04-01T09:48:46;10.65;;;5.68;;
68214;SDS011;55036;52.138;5.236;2023-04-01T09:51:45;9.65;;;5.55;;
68214;SDS011;55036;52.138;5.236;2023-04-01T10:03:02;6.05;;;3.33;;
68214;SDS011;55036;52.138;5.236;2023-04-01T10:05:58;6.72;;;3.65;;
68214;SDS011;55036;52.138;5.236;2023-04-01T10:17:59;5.72;;;3.80;;
68214;SDS011;55036;52.138;5.236;2023-04-01T10:20:29;5.57;;;3.38;;
68214;SDS011;55036;52.138;5.236;2023-04-01T10:23:31;6.63;;;3.70;;
68214;SDS011;55036;52.138;5.236;2023-04-01T10:31:50;7.05;;;4.70;;
68214;SDS011;55036;52.138;5.236;2023-04-01T10:34:37;9.10;;;4.60;;
68214;SDS011;55036;52.138;5.236;2023-04-01T10:45:44;6.78;;;5.07;;
68214;SDS011;55036;52.138;5.236;2023-04-01T10:48:42;8.80;;;5.88;;
68214;SDS011;55036;52.138;5.236;2023-04-01T10:51:17;7.57;;;5.20;;
68214;SDS011;55036;52.138;5.236;2023-04-01T10:56:51;9.23;;;6.07;;
68214;SDS011;55036;52.138;5.236;2023-04-01T11:16:33;6.03;;;4.30;;
68214;SDS011;55036;52.138;5.236;2023-04-01T11:33:31;5.20;;;3.80;;
68214;SDS011;55036;52.138;5.236;2023-04-01T11:37:04;5.25;;;3.58;;
68214;SDS011;55036;52.138;5.236;2023-04-01T11:39:27;4.88;;;3.58;;
68214;SDS011;55036;52.138;5.236;2023-04-01T11:42:11;5.20;;;3.40;;
68214;SDS011;55036;52.138;5.236;2023-04-01T11:59:47;6.50;;;4.82;;
68214;SDS011;55036;52.138;5.236;2023-04-01T12:01:59;6.32;;;4.50;;
68214;SDS011;55036;52.138;5.236;2023-04-01T12:10:21;8.10;;;5.28;;
68214;SDS011;55036;52.138;5.236;2023-04-01T12:16:29;7.82;;;5.78;;
68214;SDS011;55036;52.138;5.236;2023-04-01T12:21:52;9.13;;;5.90;;
68214;SDS011;55036;52.138;5.236;2023-04-01T12:27:34;8.02;;;5.82;;
68214;SDS011;55036;52.138;5.236;2023-04-01T12:41:29;7.85;;;5.72;;
68214;SDS011;55036;52.138;5.236;2023-04-01T12:49:43;12.38;;;7.25;;
68214;SDS011;55036;52.138;5.236;2023-04-01T12:53:01;11.32;;;6.80;;
68214;SDS011;55036;52.138;5.236;2023-04-01T12:55:41;12.20;;;7.88;;
68214;SDS011;55036;52.138;5.236;2023-04-01T13:01:25;11.57;;;7.28;;
68214;SDS011;55036;52.138;5.236;2023-04-01T13:09:42;12.52;;;7.90;;
68214;SDS011;55036;52.138;5.236;2023-04-01T13:23:09;9.35;;;6.43;;
68214;SDS011;55036;52.138;5.236;2023-04-01T13:26:00;7.47;;;5.10;;
68214;SDS011;55036;52.138;5.236;2023-04-01T13:28:59;7.60;;;5.20;;
68214;SDS011;55036;52.138;5.236;2023-04-01T13:31:43;9.10;;;5.93;;
68214;SDS011;55036;52.138;5.236;2023-04-01T13:39:51;5.88;;;4.38;;
68214;SDS011;55036;52.138;5.236;2023-04-01T13:42:40;5.93;;;4.78;;
68214;SDS011;55036;52.138;5.236;2023-04-01T13:58:34;4.65;;;3.90;;
68214;SDS011;55036;52.138;5.236;2023-04-01T14:01:13;4.90;;;3.55;;
68214;SDS011;55036;52.138;5.236;2023-04-01T14:23:17;8.18;;;5.68;;
68214;SDS011;55036;52.138;5.236;2023-04-01T14:26:15;8.63;;;5.00;;
68214;SDS011;55036;52.138;5.236;2023-04-01T14:32:09;11.27;;;6.25;;
68214;SDS011;55036;52.138;5.236;2023-04-01T14:34:55;8.52;;;5.78;;
68214;SDS011;55036;52.138;5.236;2023-04-01T14:37:39;10.18;;;5.65;;
68214;SDS011;55036;52.138;5.236;2023-04-01T14:43:21;8.55;;;6.97;;
68214;SDS011;55036;52.138;5.236;2023-04-01T14:49:14;9.07;;;6.57;;
68214;SDS011;55036;52.138;5.236;2023-04-01T14:54:50;7.90;;;5.93;;
68214;SDS011;55036;52.138;5.236;2023-04-01T14:57:26;8.20;;;6.30;;
68214;SDS011;55036;52.138;5.236;2023-04-01T15:05:14;6.93;;;5.38;;
68214;SDS011;55036;52.138;5.236;2023-04-01T15:15:58;7.10;;;5.40;;
68214;SDS011;55036;52.138;5.236;2023-04-01T15:21:44;5.30;;;4.45;;
68214;SDS011;55036;52.138;5.236;2023-04-01T15:30:05;6.45;;;3.83;;
68214;SDS011;55036;52.138;5.236;2023-04-01T15:32:57;6.38;;;4.70;;
68214;SDS011;55036;52.138;5.236;2023-04-01T15:35:39;5.38;;;4.07;;
68214;SDS011;55036;52.138;5.236;2023-04-01T15:41:15;4.97;;;3.72;;
68214;SDS011;55036;52.138;5.236;2023-04-01T15:43:50;5.72;;;4.00;;
68214;SDS011;55036;52.138;5.236;2023-04-01T15:49:28;5.65;;;3.80;;
68214;SDS011;55036;52.138;5.236;2023-04-01T15:55:15;8.32;;;3.65;;
68214;SDS011;55036;52.138;5.236;2023-04-01T16:03:23;6.03;;;4.00;;
68214;SDS011;55036;52.138;5.236;2023-04-01T16:11:24;4.60;;;3.40;;
68214;SDS011;55036;52.138;5.236;2023-04-01T16:17:21;5.40;;;3.17;;
68214;SDS011;55036;52.138;5.236;2023-04-01T16:20:02;3.75;;;2.72;;
68214;SDS011;55036;52.138;5.236;2023-04-01T16:22:53;4.45;;;3.05;;
68214;SDS011;55036;52.138;5.236;2023-04-01T16:25:33;5.70;;;2.72;;
68214;SDS011;55036;52.138;5.236;2023-04-01T16:28:13;3.30;;;2.47;;
68214;SDS011;55036;52.138;5.236;2023-04-01T16:31:16;4.10;;;2.42;;
68214;SDS011;55036;52.138;5.236;2023-04-01T16:33:49;5.72;;;2.70;;
68214;SDS011;55036;52.138;5.236;2023-04-01T16:36:29;3.42;;;2.70;;
68214;SDS011;55036;52.138;5.236;2023-04-01T16:42:02;2.60;;;2.20;;
68214;SDS011;55036;52.138;5.236;2023-04-01T16:44:54;2.78;;;2.10;;
68214;SDS011;55036;52.138;5.236;2023-04-01T16:47:27;2.33;;;1.83;;
68214;SDS011;55036;52.138;5.236;2023-04-01T16:52:36;3.80;;;2.60;;
68214;SDS011;55036;52.138;5.236;2023-04-01T16:58:18;3.88;;;2.95;;
68214;SDS011;55036;52.138;5.236;2023-04-01T17:00:50;3.60;;;2.88;;
68214;SDS011;55036;52.138;5.236;2023-04-01T17:03:29;5.43;;;3.17;;
68214;SDS011;55036;52.138;5.236;2023-04-01T17:08:38;4.55;;;3.08;;
68214;SDS011;55036;52.138;5.236;2023-04-01T17:11:26;5.15;;;3.10;;
68214;SDS011;55036;52.138;5.236;2023-04-01T17:14:03;4.10;;;3.17;;
68214;SDS011;55036;52.138;5.236;2023-04-01T17:35:32;3.55;;;3.05;;
68214;SDS011;55036;52.138;5.236;2023-04-01T17:40:58;5.45;;;3.65;;
68214;SDS011;55036;52.138;5.236;2023-04-01T17:43:30;3.10;;;2.58;;
68214;SDS011;55036;52.138;5.236;2023-04-01T17:46:24;4.53;;;2.70;;
68214;SDS011;55036;52.138;5.236;2023-04-01T17:49:24;3.08;;;2.60;;
68214;SDS011;55036;52.138;5.236;2023-04-01T17:57:19;3.53;;;3.00;;
68214;SDS011;55036;52.138;5.236;2023-04-01T18:03:00;8.43;;;3.30;;
68214;SDS011;55036;52.138;5.236;2023-04-01T18:06:19;3.30;;;2.60;;
68214;SDS011;55036;52.138;5.236;2023-04-01T18:08:51;5.28;;;3.17;;
68214;SDS011;55036;52.138;5.236;2023-04-01T18:14:18;3.65;;;2.95;;
68214;SDS011;55036;52.138;5.236;2023-04-01T18:19:48;4.10;;;3.47;;
68214;SDS011;55036;52.138;5.236;2023-04-01T18:22:47;5.00;;;4.10;;
68214;SDS011;55036;52.138;5.236;2023-04-01T18:25:22;3.42;;;2.92;;
68214;SDS011;55036;52.138;5.236;2023-04-01T18:31:03;4.50;;;3.80;;
68214;SDS011;55036;52.138;5.236;2023-04-01T18:33:41;4.72;;;4.10;;
68214;SDS011;55036;52.138;5.236;2023-04-01T18:36:38;4.65;;;4.10;;
68214;SDS011;55036;52.138;5.236;2023-04-01T18:39:23;4.63;;;3.40;;
68214;SDS011;55036;52.138;5.236;2023-04-01T18:42:22;4.80;;;3.45;;
68214;SDS011;55036;52.138;5.236;2023-04-01T18:45:26;4.78;;;3.90;;
68214;SDS011;55036;52.138;5.236;2023-04-01T18:48:03;4.60;;;3.58;;
68214;SDS011;55036;52.138;5.236;2023-04-01T18:50:57;5.35;;;4.13;;
68214;SDS011;55036;52.138;5.236;2023-04-01T18:53:39;6.15;;;4.53;;
68214;SDS011;55036;52.138;5.236;2023-04-01T18:56:14;6.78;;;4.78;;
68214;SDS011;55036;52.138;5.236;2023-04-01T18:58:59;4.95;;;4.35;;
68214;SDS011;55036;52.138;5.236;2023-04-01T19:02:31;5.90;;;4.95;;
68214;SDS011;55036;52.138;5.236;2023-04-01T19:04:43;5.40;;;4.90;;
68214;SDS011;55036;52.138;5.236;2023-04-01T19:13:06;5.90;;;4.88;;
68214;SDS011;55036;52.138;5.236;2023-04-01T19:21:30;5.40;;;4.53;;
68214;SDS011;55036;52.138;5.236;2023-04-01T19:24:18;5.63;;;5.13;;
68214;SDS011;55036;52.138;5.236;2023-04-01T19:32:32;6.63;;;5.35;;
68214;SDS011;55036;52.138;5.236;2023-04-01T19:40:17;8.25;;;5.72;;
68214;SDS011;55036;52.138;5.236;2023-04-01T19:46:04;7.55;;;6.75;;
68214;SDS011;55036;52.138;5.236;2023-04-01T19:49:29;8.90;;;6.65;;
68214;SDS011;55036;52.138;5.236;2023-04-01T19:57:38;6.57;;;5.85;;
68214;SDS011;55036;52.138;5.236;2023-04-01T20:00:41;9.77;;;6.47;;
68214;SDS011;55036;52.138;5.236;2023-04-01T20:03:13;7.03;;;5.88;;
68214;SDS011;55036;52.138;5.236;2023-04-01T20:24:51;8.68;;;7.28;;
68214;SDS011;55036;52.138;5.236;2023-04-01T20:27:21;8.13;;;6.55;;
68214;SDS011;55036;52.138;5.236;2023-04-01T20:33:15;9.63;;;6.00;;
68214;SDS011;55036;52.138;5.236;2023-04-01T20:41:27;10.25;;;6.72;;
68214;SDS011;55036;52.138;5.236;2023-04-01T20:46:36;8.90;;;6.65;;
68214;SDS011;55036;52.138;5.236;2023-04-01T20:49:30;9.40;;;6.47;;
68214;SDS011;55036;52.138;5.236;2023-04-01T20:52:21;11.48;;;7.32;;
68214;SDS011;55036;52.138;5.236;2023-04-01T21:15:10;6.82;;;4.80;;
68214;SDS011;55036;52.138;5.236;2023-04-01T21:20:52;7.25;;;5.47;;
68214;SDS011;55036;52.138;5.236;2023-04-01T21:23:27;7.72;;;5.13;;
68214;SDS011;55036;52.138;5.236;2023-04-01T21:31:54;10.90;;;6.95;;
68214;SDS011;55036;52.138;5.236;2023-04-01T21:46:04;8.20;;;6.25;;
68214;SDS011;55036;52.138;5.236;2023-04-01T21:48:47;8.55;;;6.75;;
68214;SDS011;55036;52.138;5.236;2023-04-01T21:59:56;9.85;;;6.57;;
68214;SDS011;55036;52.138;5.236;2023-04-01T22:05:17;8.48;;;6.28;;
68214;SDS011;55036;52.138;5.236;2023-04-01T22:11:06;9.82;;;6.80;;
68214;SDS011;55036;52.138;5.236;2023-04-01T22:13:46;10.85;;;6.80;;
68214;SDS011;55036;52.138;5.236;2023-04-01T22:19:04;9.15;;;6.97;;
68214;SDS011;55036;52.138;5.236;2023-04-01T22:21:48;9.50;;;6.78;;
68214;SDS011;55036;52.138;5.236;2023-04-01T22:24:43;10.35;;;7.35;;
68214;SDS011;55036;52.138;5.236;2023-04-01T22:27:26;14.23;;;7.32;;
68214;SDS011;55036;52.138;5.236;2023-04-01T22:30:17;9.27;;;7.22;;
68214;SDS011;55036;52.138;5.236;2023-04-01T22:32:50;9.50;;;7.38;;
68214;SDS011;55036;52.138;5.236;2023-04-01T22:41:18;10.25;;;7.28;;
68214;SDS011;55036;52.138;5.236;2023-04-01T22:43:47;12.52;;;8.43;;
68214;SDS011;55036;52.138;5.236;2023-04-01T22:46:18;12.88;;;8.68;;
68214;SDS011;55036;52.138;5.236;2023-04-01T22:54:23;13.30;;;8.23;;
68214;SDS011;55036;52.138;5.236;2023-04-01T22:56:57;12.63;;;8.02;;
68214;SDS011;55036;52.138;5.236;2023-04-01T22:59:31;13.40;;;8.13;;
68214;SDS011;55036;52.138;5.236;2023-04-01T23:02:06;11.70;;;8.10;;
68214;SDS011;55036;52.138;5.236;2023-04-01T23:04:42;11.05;;;7.93;;
68214;SDS011;55036;52.138;5.236;2023-04-01T23:07:19;16.25;;;8.85;;
68214;SDS011;55036;52.138;5.236;2023-04-01T23:09:56;13.00;;;8.20;;
68214;SDS011;55036;52.138;5.236;2023-04-01T23:12:27;17.45;;;8.43;;
68214;SDS011;55036;52.138;5.236;2023-04-01T23:14:59;13.45;;;9.05;;
68214;SDS011;55036;52.138;5.236;2023-04-01T23:22:54;13.50;;;8.07;;
68214;SDS011;55036;52.138;5.236;2023-04-01T23:31:24;14.63;;;9.07;;
68214;SDS011;55036;52.138;5.236;2023-04-01T23:34:27;13.25;;;8.35;;
68214;SDS011;55036;52.138;5.236;2023-04-01T23:36:50;13.55;;;8.73;;
68214;SDS011;55036;52.138;5.236;2023-04-01T23:39:38;11.07;;;8.23;;
68214;SDS011;55036;52.138;5.236;2023-04-01T23:42:07;16.40;;;9.30;;
68214;SDS011;55036;52.138;5.236;2023-04-01T23:44:48;11.85;;;7.85;;
68214;SDS011;55036;52.138;5.236;2023-04-01T23:47:21;14.38;;;9.60;;
68214;SDS011;55036;52.138;5.236;2023-04-01T23:49:54;15.75;;;9.02;;
68214;SDS011;55036;52.138;5.236;2023-04-01T23:52:36;16.42;;;9.45;;
68214;SDS011;55036;52.138;5.236;2023-04-01T23:55:23;14.77;;;9.10;;
